createdAt,value
2023-01-09T00:00:15.811Z,16.50
2023-01-09T00:04:19.386Z,13.05
2023-01-09T00:08:22.501Z,19.00
2023-01-09T00:12:27.084Z,22.17
2023-01-09T00:16:30.333Z,17.23
2023-01-09T00:20:33.332Z,16.80
2023-01-09T00:24:37.065Z,13.85
2023-01-09T00:28:42.146Z,14.73
2023-01-09T00:32:45.573Z,14.68
2023-01-09T00:36:48.885Z,20.55
2023-01-09T00:40:52.421Z,14.00
2023-01-09T00:45:00.426Z,14.60
2023-01-09T00:49:05.644Z,18.55
2023-01-09T00:53:14.554Z,18.77
2023-01-09T00:57:17.989Z,15.32
2023-01-09T01:01:23.282Z,19.08
2023-01-09T01:05:43.932Z,19.77
2023-01-09T01:09:50.045Z,14.60
2023-01-09T01:13:53.725Z,12.50
2023-01-09T01:17:59.892Z,13.32
2023-01-09T01:22:03.198Z,13.00
2023-01-09T01:26:07.627Z,13.73
2023-01-09T01:30:14.720Z,13.82
2023-01-09T01:34:19.351Z,13.52
2023-01-09T01:38:22.468Z,19.27
2023-01-09T01:42:25.636Z,16.52
2023-01-09T01:46:29.506Z,17.17
2023-01-09T01:50:39.166Z,19.70
2023-01-09T01:54:43.287Z,16.75
2023-01-09T01:58:51.613Z,19.30
2023-01-09T02:02:54.871Z,19.33
2023-01-09T02:07:02.005Z,16.73
2023-01-09T02:11:06.819Z,14.73
2023-01-09T02:15:13.301Z,15.23
2023-01-09T02:19:37.921Z,15.52
2023-01-09T02:24:26.148Z,15.57
2023-01-09T02:28:55.429Z,14.18
2023-01-09T02:33:10.351Z,13.43
2023-01-09T02:37:22.989Z,19.85
2023-01-09T02:41:36.867Z,14.13
2023-01-09T02:45:40.323Z,16.90
2023-01-09T02:49:49.200Z,16.52
2023-01-09T02:54:04.503Z,14.60
2023-01-09T02:58:13.164Z,22.05
2023-01-09T03:02:35.636Z,13.45
2023-01-09T03:06:48.537Z,15.65
2023-01-09T03:10:57.294Z,18.40
2023-01-09T03:15:03.296Z,19.33
2023-01-09T03:19:09.667Z,14.70
2023-01-09T03:23:14.127Z,14.90
2023-01-09T03:27:17.376Z,21.15
2023-01-09T03:31:20.325Z,17.88
2023-01-09T03:35:23.758Z,18.80
2023-01-09T03:39:28.253Z,20.02
2023-01-09T03:43:31.892Z,21.20
2023-01-09T03:47:34.791Z,19.85
2023-01-09T03:51:38.056Z,16.70
2023-01-09T03:55:45.350Z,20.33
2023-01-09T03:59:48.410Z,18.08
2023-01-09T04:03:51.365Z,17.73
2023-01-09T04:07:54.540Z,14.07
2023-01-09T04:11:59.285Z,19.85
2023-01-09T04:16:02.611Z,16.05
2023-01-09T04:20:06.678Z,17.85
2023-01-09T04:24:10.062Z,18.95
2023-01-09T04:28:14.592Z,15.80
2023-01-09T04:32:17.888Z,17.55
2023-01-09T04:36:20.885Z,18.17
2023-01-09T04:40:24.087Z,22.63
2023-01-09T04:44:28.721Z,18.40
2023-01-09T04:48:31.955Z,17.88
2023-01-09T04:52:34.901Z,19.00
2023-01-09T04:56:38.116Z,20.65
2023-01-09T05:00:42.663Z,16.65
2023-01-09T05:04:45.814Z,20.08
2023-01-09T05:08:48.909Z,15.75
2023-01-09T05:12:52.839Z,15.70
2023-01-09T05:16:58.274Z,17.58
2023-01-09T05:21:01.516Z,13.52
2023-01-09T05:25:04.762Z,15.63
2023-01-09T05:29:07.883Z,18.35
2023-01-09T05:33:12.422Z,20.52
2023-01-09T05:37:15.646Z,22.77
2023-01-09T05:41:18.627Z,25.73
2023-01-09T05:45:22.513Z,21.27
2023-01-09T05:49:27.226Z,23.08
2023-01-09T05:53:30.464Z,20.63
2023-01-09T05:57:33.344Z,26.45
2023-01-09T06:01:36.723Z,25.63
2023-01-09T06:05:41.268Z,21.85
2023-01-09T06:09:45.578Z,20.75
2023-01-09T06:13:48.450Z,29.35
2023-01-09T06:17:51.888Z,17.45
2023-01-09T06:21:56.350Z,24.88
2023-01-09T06:26:00.872Z,21.70
2023-01-09T06:30:04.181Z,26.20
2023-01-09T06:34:07.244Z,29.17
2023-01-09T06:38:12.642Z,26.90
2023-01-09T06:42:15.721Z,26.15
2023-01-09T06:46:19.015Z,26.90
2023-01-09T06:50:22.064Z,24.02
2023-01-09T06:54:28.609Z,26.13
2023-01-09T06:58:31.915Z,24.80
2023-01-09T07:02:34.773Z,32.53
2023-01-09T07:06:38.355Z,22.48
2023-01-09T07:10:42.967Z,24.75
2023-01-09T07:14:46.092Z,23.35
2023-01-09T07:18:49.221Z,20.77
2023-01-09T07:22:52.268Z,21.23
2023-01-09T07:26:56.819Z,16.40
2023-01-09T07:31:02.904Z,23.10
2023-01-09T07:35:06.644Z,22.08
2023-01-09T07:39:09.678Z,16.73
2023-01-09T07:43:14.213Z,19.40
2023-01-09T07:47:17.165Z,24.60
2023-01-09T07:51:20.278Z,25.30
2023-01-09T07:55:23.330Z,19.05
2023-01-09T07:59:29.128Z,20.67
2023-01-09T08:03:33.753Z,15.60
2023-01-09T08:07:37.060Z,19.85
2023-01-09T08:11:39.996Z,15.40
2023-01-09T08:15:45.851Z,13.73
2023-01-09T08:19:48.917Z,11.27
2023-01-09T08:23:52.064Z,5.30
2023-01-09T08:27:55.011Z,5.22
2023-01-09T08:31:59.813Z,4.82
2023-01-09T08:36:03.072Z,4.93
2023-01-09T08:40:07.893Z,2.85
2023-01-09T08:44:28.455Z,1.33
2023-01-09T08:48:32.917Z,0.77
2023-01-09T08:52:36.048Z,1.08
2023-01-09T08:56:39.499Z,0.73
2023-01-09T09:00:42.813Z,0.50
2023-01-09T09:04:48.127Z,0.50
2023-01-09T09:08:51.231Z,0.80
2023-01-09T09:12:56.220Z,0.30
2023-01-09T09:16:59.721Z,1.40
2023-01-09T09:21:04.128Z,0.95
2023-01-09T09:25:08.689Z,0.50
2023-01-09T09:29:11.889Z,0.22
2023-01-09T09:33:15.023Z,1.55
2023-01-09T09:37:23.614Z,0.20
2023-01-09T09:42:03.317Z,0.30
2023-01-09T09:46:16.537Z,0.20
2023-01-09T09:50:43.348Z,0.82
2023-01-09T10:01:02.608Z,0.75
2023-01-09T10:06:12.488Z,0.20
2023-01-09T10:10:47.760Z,0.10
2023-01-09T10:14:52.054Z,0.30
2023-01-09T10:19:18.932Z,0.20
2023-01-09T10:23:54.568Z,1.08
2023-01-09T10:28:28.291Z,0.52
2023-01-09T10:32:53.048Z,0.40
2023-01-09T10:37:03.132Z,0.10
2023-01-09T10:41:11.974Z,0.13
2023-01-09T10:45:22.515Z,0.90
2023-01-09T10:49:26.172Z,1.48
2023-01-09T10:53:34.460Z,0.20
2023-01-09T10:57:43.461Z,0.30
2023-01-09T11:01:48.284Z,1.15
2023-01-09T11:05:53.995Z,0.20
2023-01-09T11:09:59.274Z,0.40
2023-01-09T11:14:08.646Z,0.80
2023-01-09T11:18:26.061Z,0.20
2023-01-09T11:22:29.792Z,1.08
2023-01-09T11:26:35.154Z,1.63
2023-01-09T11:30:39.211Z,0.55
2023-01-09T11:34:47.557Z,3.53
2023-01-09T11:38:54.037Z,0.82
2023-01-09T11:43:07.677Z,0.30
2023-01-09T11:47:28.019Z,0.20
2023-01-09T11:51:35.259Z,0.28
2023-01-09T11:55:42.868Z,2.03
2023-01-09T11:59:46.279Z,0.82
2023-01-09T12:04:08.703Z,0.20
2023-01-09T12:12:52.996Z,0.20
2023-01-09T12:17:20.120Z,0.65
2023-01-09T12:21:37.544Z,0.65
2023-01-09T12:25:51.811Z,0.30
2023-01-09T12:30:12.281Z,0.57
2023-01-09T12:34:32.863Z,1.23
2023-01-09T12:38:48.072Z,1.00
2023-01-09T12:42:59.830Z,0.28
2023-01-09T12:47:20.665Z,0.35
2023-01-09T12:51:29.525Z,5.28
2023-01-09T12:55:40.092Z,0.63
2023-01-09T12:59:48.806Z,0.95
2023-01-09T13:04:03.260Z,0.85
2023-01-09T13:08:11.597Z,0.20
2023-01-09T13:12:18.635Z,0.55
2023-01-09T13:16:24.893Z,0.10
2023-01-09T13:20:37.800Z,0.38
2023-01-09T13:24:54.821Z,3.25
2023-01-09T13:29:03.445Z,0.20
2023-01-09T13:33:18.389Z,0.20
2023-01-09T13:37:26.156Z,0.32
2023-01-09T13:41:48.965Z,0.70
2023-01-09T13:45:53.050Z,0.22
2023-01-09T13:50:22.969Z,0.55
2023-01-09T13:54:59.293Z,1.65
2023-01-09T13:59:04.441Z,5.50
2023-01-09T14:03:23.790Z,0.10
2023-01-09T14:07:28.547Z,0.40
2023-01-09T14:11:32.224Z,0.40
2023-01-09T14:15:40.072Z,0.10
2023-01-09T14:19:46.989Z,0.40
2023-01-09T14:24:02.169Z,0.20
2023-01-09T14:28:21.967Z,5.18
2023-01-09T14:32:47.365Z,0.20
2023-01-09T14:36:50.784Z,3.85
2023-01-09T14:40:58.711Z,0.20
2023-01-09T14:45:08.369Z,0.30
2023-01-09T14:49:25.566Z,0.35
2023-01-09T14:53:32.041Z,1.75
2023-01-09T14:57:36.414Z,0.95
2023-01-09T15:01:43.113Z,0.45
2023-01-09T15:05:49.924Z,4.63
2023-01-09T15:09:53.106Z,0.43
2023-01-09T15:14:00.633Z,7.28
2023-01-09T15:18:07.136Z,0.57
2023-01-09T15:22:24.973Z,1.20
2023-01-09T15:26:30.591Z,0.85
2023-01-09T15:30:36.287Z,1.30
2023-01-09T15:34:39.564Z,0.98
2023-01-09T15:38:44.998Z,0.68
2023-01-09T15:42:58.442Z,0.60
2023-01-09T15:47:02.897Z,2.05
2023-01-09T15:51:10.603Z,1.25
2023-01-09T15:55:35.258Z,0.55
2023-01-09T15:59:39.046Z,1.13
2023-01-09T16:03:42.127Z,3.78
2023-01-09T16:07:47.369Z,1.95
2023-01-09T16:11:54.473Z,8.07
2023-01-09T16:15:59.004Z,0.50
2023-01-09T16:20:16.056Z,1.17
2023-01-09T16:24:27.984Z,1.05
2023-01-09T16:28:33.032Z,1.40
2023-01-09T16:32:46.789Z,8.27
2023-01-09T16:36:49.984Z,4.55
2023-01-09T16:41:18.371Z,1.55
2023-01-09T16:45:23.251Z,7.70
2023-01-09T16:49:29.325Z,1.42
2023-01-09T16:53:32.460Z,5.40
2023-01-09T16:57:36.862Z,1.95
2023-01-09T17:01:41.919Z,4.65
2023-01-09T17:05:45.679Z,1.55
2023-01-09T17:09:49.225Z,1.30
2023-01-09T17:13:52.702Z,1.95
2023-01-09T17:18:01.307Z,2.45
2023-01-09T17:22:04.352Z,1.17
2023-01-09T17:26:25.120Z,2.70
2023-01-09T17:30:28.721Z,3.67
2023-01-09T17:34:34.455Z,0.80
2023-01-09T17:38:39.858Z,2.97
2023-01-09T17:42:42.787Z,4.32
2023-01-09T17:46:46.323Z,4.20
2023-01-09T17:50:51.480Z,2.97
2023-01-09T17:54:57.871Z,1.67
2023-01-09T17:59:13.781Z,4.22
2023-01-09T18:03:21.187Z,4.15
2023-01-09T18:07:29.157Z,4.00
2023-01-09T18:11:32.854Z,2.15
2023-01-09T18:15:36.979Z,3.35
2023-01-09T18:19:40.656Z,4.78
2023-01-09T18:23:50.612Z,13.68
2023-01-09T18:27:57.025Z,2.78
2023-01-09T18:32:03.812Z,4.88
2023-01-09T18:36:08.521Z,2.55
2023-01-09T18:40:19.761Z,1.05
2023-01-09T18:44:25.019Z,5.35
2023-01-09T18:48:33.926Z,1.90
2023-01-09T18:52:37.131Z,1.70
2023-01-09T18:56:42.381Z,0.88
2023-01-09T19:00:46.246Z,1.88
2023-01-09T19:04:49.591Z,2.65
2023-01-09T19:08:53.330Z,2.00
2023-01-09T19:12:58.962Z,1.67
2023-01-09T19:17:02.100Z,1.88
2023-01-09T19:21:13.306Z,1.75
2023-01-09T19:25:17.579Z,1.33
2023-01-09T19:29:22.434Z,2.50
2023-01-09T19:33:28.666Z,1.65
2023-01-09T19:37:32.031Z,3.08
2023-01-09T19:41:35.180Z,1.73
2023-01-09T19:45:41.590Z,1.95
2023-01-09T19:49:44.865Z,4.43
2023-01-09T19:53:53.763Z,2.88
2023-01-09T19:57:57.111Z,2.67
2023-01-09T20:02:03.347Z,5.20
2023-01-09T20:06:08.005Z,3.95
2023-01-09T20:10:14.967Z,4.18
2023-01-09T20:14:20.160Z,4.50
2023-01-09T20:18:24.814Z,1.30
2023-01-09T20:22:27.901Z,3.75
2023-01-09T20:26:31.455Z,2.75
2023-01-09T20:30:36.611Z,2.42
2023-01-09T20:34:42.918Z,2.35
2023-01-09T20:38:48.314Z,1.30
2023-01-09T20:42:51.218Z,1.52
2023-01-09T20:46:55.861Z,1.83
2023-01-09T20:51:05.950Z,5.68
2023-01-09T20:55:10.879Z,2.30
2023-01-09T20:59:17.249Z,0.93
2023-01-09T21:03:20.314Z,1.00
2023-01-09T21:07:26.415Z,1.13
2023-01-09T21:11:29.735Z,5.88
2023-01-09T21:15:33.388Z,1.90
2023-01-09T21:19:36.315Z,2.25
2023-01-09T21:23:42.059Z,2.03
2023-01-09T21:27:46.215Z,1.05
2023-01-09T21:31:49.614Z,1.48
2023-01-09T21:35:56.276Z,1.17
2023-01-09T21:40:00.872Z,6.97
2023-01-09T21:44:21.890Z,2.63
2023-01-09T21:48:25.804Z,3.10
2023-01-09T21:52:29.318Z,0.90
2023-01-09T21:56:33.813Z,1.05
2023-01-09T22:00:37.253Z,2.47
2023-01-09T22:04:43.223Z,3.08
2023-01-09T22:08:46.586Z,0.90
2023-01-09T22:13:10.365Z,1.13
2023-01-09T22:17:15.634Z,1.10
2023-01-09T22:21:19.172Z,1.20
2023-01-09T22:25:22.886Z,0.88
2023-01-09T22:29:27.340Z,0.75
2023-01-09T22:33:30.420Z,1.67
2023-01-09T22:37:33.661Z,3.00
2023-01-09T22:41:36.978Z,0.70
2023-01-09T22:45:41.348Z,2.67
2023-01-09T22:49:52.868Z,3.08
2023-01-09T22:53:56.525Z,1.40
2023-01-09T22:57:59.913Z,1.13
2023-01-09T23:02:04.436Z,0.98
2023-01-09T23:06:09.966Z,1.08
2023-01-09T23:10:13.243Z,1.33
2023-01-09T23:14:16.413Z,1.52
2023-01-09T23:18:20.990Z,0.45
2023-01-09T23:22:26.189Z,0.95
2023-01-09T23:26:29.258Z,0.38
2023-01-09T23:30:32.468Z,0.63
2023-01-09T23:34:37.026Z,1.73
2023-01-09T23:38:41.200Z,0.95
2023-01-09T23:43:01.670Z,0.57
2023-01-09T23:47:04.960Z,3.13
2023-01-09T23:51:09.373Z,1.50
2023-01-09T23:55:12.367Z,0.70
2023-01-09T23:59:17.998Z,1.27
